Time;durP1;ratioP1;P1;durP2;ratioP2;P2;SDS_P1;SDS_P2;PMS_P1;PMS_P2;Temp;Humidity;BMP_temperature;BMP_pressure;BME280_temperature;BME280_humidity;BME280_pressure;Samples;Min_cycle;Max_cycle;Signal;HPM_P1;HPM_P2
2022/09/01 00:01:19;;;;;;;1.35;0.80;;;;;;;18.02;48.38;100305.27;1782648;80;21046;-74
2022/09/01 00:03:48;;;;;;;3.22;0.88;;;;;;;18.03;48.33;100306.41;1789484;80;21015;-77
2022/09/01 00:06:22;;;;;;;4.97;1.30;;;;;;;18.02;48.36;100310.27;1775538;80;21006;-75
2022/09/01 00:08:55;;;;;;;4.72;0.90;;;;;;;18.00;48.28;100308.28;1761461;80;21036;-74
2022/09/01 00:11:24;;;;;;;1.42;0.90;;;;;;;17.99;48.30;100312.15;1728662;81;21487;-75
2022/09/01 00:13:54;;;;;;;1.10;0.80;;;;;;;18.01;48.35;100309.13;1778631;79;21028;-73
2022/09/01 00:16:24;;;;;;;1.40;0.93;;;;;;;18.03;48.32;100305.56;1793474;79;21093;-74
2022/09/01 00:18:53;;;;;;;2.20;0.95;;;;;;;18.04;48.18;100309.47;1724771;83;21044;-72
2022/09/01 00:21:26;;;;;;;1.87;1.00;;;;;;;18.06;47.85;100310.06;1790124;79;21956;-73
2022/09/01 00:23:56;;;;;;;1.12;0.78;;;;;;;18.08;47.40;100307.59;1766509;79;21462;-74
2022/09/01 00:26:26;;;;;;;3.35;0.80;;;;;;;18.04;47.44;100309.47;1791480;79;21509;-75
2022/09/01 00:28:56;;;;;;;1.25;0.90;;;;;;;18.04;47.42;100312.25;1782049;79;21192;-73
2022/09/01 00:31:25;;;;;;;2.40;0.98;;;;;;;18.06;47.25;100310.06;1809632;79;21485;-73
2022/09/01 00:33:56;;;;;;;1.30;1.00;;;;;;;18.05;46.79;100306.16;1783393;79;21039;-73
2022/09/01 00:36:25;;;;;;;3.47;1.07;;;;;;;18.03;46.61;100307.79;1809205;79;21039;-74
2022/09/01 00:38:57;;;;;;;1.60;1.10;;;;;;;18.03;46.69;100310.56;1783672;79;21033;-75
2022/09/01 00:41:29;;;;;;;2.52;1.10;;;;;;;18.03;46.57;100317.49;1795886;79;21091;-73
2022/09/01 00:44:04;;;;;;;2.02;1.00;;;;;;;18.03;46.48;100313.33;1795470;79;20976;-72
2022/09/01 00:46:42;;;;;;;1.60;0.90;;;;;;;18.01;46.54;100315.52;1792631;79;21084;-72
2022/09/01 00:49:23;;;;;;;1.55;0.90;;;;;;;18.02;46.32;100314.97;1739757;81;21058;-73
2022/09/01 00:51:56;;;;;;;1.17;0.90;;;;;;;18.04;46.16;100312.79;1721773;82;21088;-74
2022/09/01 00:54:30;;;;;;;1.32;0.90;;;;;;;18.03;45.67;100313.33;1724325;82;21039;-72
2022/09/01 00:57:00;;;;;;;1.20;0.80;;;;;;;17.99;45.75;100312.70;1791544;79;21441;-74
2022/09/01 00:59:29;;;;;;;3.87;0.80;;;;;;;17.98;45.62;100316.02;1746643;79;21104;-73
2022/09/01 01:01:58;;;;;;;1.32;0.80;;;;;;;17.95;45.51;100315.13;1791447;79;21429;-75
2022/09/01 01:04:29;;;;;;;0.93;0.62;;;;;;;17.92;45.42;100312.01;1795244;79;21053;-72
2022/09/01 01:07:01;;;;;;;2.20;0.90;;;;;;;17.88;45.56;100311.66;1809085;79;21004;-73
2022/09/01 01:09:34;;;;;;;1.60;0.80;;;;;;;17.90;45.47;100312.25;1803556;79;20992;-73
2022/09/01 01:12:04;;;;;;;1.20;0.70;;;;;;;17.91;45.56;100316.70;1810141;79;21447;-74
2022/09/01 01:14:35;;;;;;;0.82;0.60;;;;;;;17.93;45.42;100312.30;1807726;79;21027;-72
2022/09/01 01:17:07;;;;;;;1.70;0.80;;;;;;;17.91;45.30;100315.88;1808522;79;21066;-75
2022/09/01 01:23:04;;;;;;;0.72;0.65;;;;;;;17.80;45.62;100316.22;1809001;79;21003;-74
2022/09/01 01:25:49;;;;;;;1.00;0.78;;;;;;;17.77;45.82;100319.48;1808890;79;21039;-74
2022/09/01 01:28:26;;;;;;;1.45;0.60;;;;;;;17.76;45.94;100312.26;1809113;79;21026;-73
2022/09/01 01:31:00;;;;;;;1.50;0.90;;;;;;;17.74;45.89;100318.59;1808726;79;21006;-73
2022/09/01 01:33:40;;;;;;;0.75;0.60;;;;;;;17.71;45.90;100314.38;1807654;79;21047;-73
2022/09/01 01:36:25;;;;;;;4.80;1.00;;;;;;;17.69;46.04;100315.17;1807639;79;21447;-72
2022/09/01 01:38:52;;;;;;;1.92;0.80;;;;;;;17.62;46.34;100315.83;1808379;79;21023;-73
2022/09/01 01:41:23;;;;;;;1.77;0.75;;;;;;;17.57;46.49;100306.58;1809186;79;21090;-74
2022/09/01 01:43:57;;;;;;;1.60;0.80;;;;;;;17.54;46.75;100313.41;1808955;79;21090;-75
2022/09/01 01:46:28;;;;;;;1.72;0.98;;;;;;;17.48;46.89;100310.24;1775019;79;20995;-73
2022/09/01 01:49:00;;;;;;;3.02;0.85;;;;;;;17.46;47.02;100311.03;1809133;79;21007;-73
2022/09/01 01:51:31;;;;;;;3.15;0.90;;;;;;;17.46;47.18;100312.41;1783101;79;21031;-72
2022/09/01 01:54:04;;;;;;;1.32;0.70;;;;;;;17.44;47.30;100297.42;1808005;79;20952;-73
2022/09/01 01:56:38;;;;;;;1.90;0.80;;;;;;;17.42;47.41;100298.21;1791735;79;21035;-73
2022/09/01 01:59:08;;;;;;;1.35;0.62;;;;;;;17.43;47.62;100299.05;1809031;79;21412;-73
2022/09/01 02:01:41;;;;;;;1.35;0.70;;;;;;;17.43;47.68;100297.67;1808181;79;20967;-73
2022/09/01 02:04:13;;;;;;;1.22;0.80;;;;;;;17.38;47.86;100294.80;1808067;79;20991;-73
2022/09/01 02:06:45;;;;;;;1.87;0.98;;;;;;;17.35;48.04;100300.28;1807601;79;21011;-73
2022/09/01 02:09:16;;;;;;;3.70;1.20;;;;;;;17.29;48.14;100298.48;1793923;79;21046;-73
2022/09/01 02:11:47;;;;;;;1.75;0.85;;;;;;;17.23;48.38;100289.77;1754131;81;20999;-73
2022/09/01 02:14:20;;;;;;;6.30;1.45;;;;;;;17.19;48.68;100296.89;1720712;82;21451;-74
2022/09/01 02:16:49;;;;;;;3.20;1.10;;;;;;;17.13;48.92;100286.78;1765420;80;20994;-73
2022/09/01 02:19:19;;;;;;;3.08;0.80;;;;;;;17.08;49.11;100286.67;1777662;80;21485;-73
2022/09/01 02:21:53;;;;;;;2.85;1.12;;;;;;;17.03;49.38;100286.56;1765583;81;21062;-72
2022/09/01 02:24:21;;;;;;;2.45;1.00;;;;;;;17.01;49.59;100283.20;1729538;83;21085;-75
2022/09/01 02:26:51;;;;;;;2.37;0.90;;;;;;;17.02;49.65;100289.03;1712779;83;21091;-73
2022/09/01 02:29:25;;;;;;;1.35;0.70;;;;;;;16.99;49.77;100293.12;1729451;82;21031;-74
2022/09/01 02:31:56;;;;;;;2.58;1.00;;;;;;;16.96;49.68;100287.23;1703082;83;21054;-76
2022/09/01 02:34:27;;;;;;;3.72;1.00;;;;;;;16.95;49.88;100300.77;1778447;80;21054;-75
2022/09/01 02:36:58;;;;;;;3.40;0.90;;;;;;;16.93;50.05;100296.86;1776812;80;21006;-72
2022/09/01 02:39:28;;;;;;;1.57;0.82;;;;;;;16.93;50.15;100284.95;1778157;80;21050;-73
2022/09/01 02:42:00;;;;;;;1.62;0.80;;;;;;;16.92;50.34;100290.19;1765303;81;21018;-72
2022/09/01 02:44:30;;;;;;;0.98;0.80;;;;;;;16.89;50.34;100293.41;1720679;82;21047;-73
2022/09/01 02:47:04;;;;;;;2.40;1.05;;;;;;;16.86;50.55;100304.95;1720022;83;21055;-74
2022/09/01 02:49:34;;;;;;;4.05;1.15;;;;;;;16.78;50.75;100295.09;1719884;83;21048;-72
2022/09/01 02:52:05;;;;;;;3.75;1.37;;;;;;;16.68;51.00;100301.23;1719866;83;21020;-72
2022/09/01 02:54:35;;;;;;;3.75;1.50;;;;;;;16.63;51.28;100301.62;1775756;80;21046;-72
2022/09/01 02:57:04;;;;;;;3.27;1.00;;;;;;;16.59;51.58;100296.27;1765300;81;21430;-72
2022/09/01 02:59:36;;;;;;;3.15;1.52;;;;;;;16.54;51.66;100297.52;1728481;83;21530;-75
2022/09/01 03:02:08;;;;;;;3.75;1.40;;;;;;;16.54;51.77;100303.90;1764318;80;21039;-72
2022/09/01 03:04:39;;;;;;;5.03;1.40;;;;;;;16.55;51.82;100300.05;1720138;82;21023;-74
2022/09/01 03:07:12;;;;;;;5.05;1.57;;;;;;;16.51;51.98;100303.53;1720626;83;21090;-75
2022/09/01 03:09:42;;;;;;;4.37;1.90;;;;;;;16.46;52.22;100307.86;1764155;79;21011;-73
2022/09/01 03:12:12;;;;;;;2.80;1.98;;;;;;;16.43;52.45;100308.34;1765467;81;21082;-75
2022/09/01 03:14:44;;;;;;;4.22;1.95;;;;;;;16.42;52.71;100312.72;1708696;83;21107;-75
2022/09/01 03:17:13;;;;;;;5.00;2.35;;;;;;;16.38;52.96;100318.43;1761596;80;21486;-75
2022/09/01 03:19:45;;;;;;;7.35;2.40;;;;;;;16.35;53.16;100324.44;1765750;81;21118;-73
2022/09/01 03:22:14;;;;;;;4.72;2.70;;;;;;;16.35;53.38;100325.81;1729713;82;21430;-74
2022/09/01 03:24:44;;;;;;;11.12;3.00;;;;;;;16.35;53.67;100332.19;1714426;83;21037;-75
2022/09/01 03:27:14;;;;;;;7.05;2.90;;;;;;;16.30;53.87;100329.84;1725736;83;21034;-74
2022/09/01 03:29:44;;;;;;;6.30;2.62;;;;;;;16.27;54.21;100325.63;1732725;83;21478;-73
2022/09/01 03:32:14;;;;;;;12.33;3.35;;;;;;;16.28;54.48;100331.99;1764921;81;21529;-73
2022/09/01 03:34:44;;;;;;;14.10;4.05;;;;;;;16.26;54.65;100327.23;1765181;81;21483;-73
2022/09/01 03:37:14;;;;;;;8.55;2.98;;;;;;;16.24;54.92;100332.97;1765458;81;21035;-74
2022/09/01 03:39:43;;;;;;;6.33;3.00;;;;;;;16.21;55.21;100332.61;1766430;81;21043;-75
2022/09/01 03:42:18;;;;;;;8.10;2.95;;;;;;;16.17;55.46;100329.47;1753095;81;21015;-75
2022/09/01 03:44:44;;;;;;;8.98;4.37;;;;;;;16.15;55.65;100331.09;1764387;81;21116;-72
2022/09/01 03:47:16;;;;;;;9.25;3.70;;;;;;;16.12;55.88;100333.48;1745124;81;21019;-73
2022/09/01 03:49:48;;;;;;;7.22;3.40;;;;;;;16.14;56.04;100338.23;1765931;81;21553;-73
2022/09/01 03:52:19;;;;;;;7.87;4.30;;;;;;;16.15;56.13;100339.38;1765158;81;21113;-74
2022/09/01 03:54:52;;;;;;;10.03;3.60;;;;;;;16.16;56.38;100342.98;1766199;81;21446;-74
2022/09/01 03:57:22;;;;;;;7.62;3.47;;;;;;;16.14;56.53;100342.37;1764739;81;21386;-73
2022/09/01 03:59:53;;;;;;;10.15;3.40;;;;;;;16.16;56.70;100338.30;1765837;81;21391;-72
2022/09/01 04:02:28;;;;;;;7.62;3.35;;;;;;;16.20;56.96;100341.98;1765442;81;21030;-73
2022/09/01 04:04:57;;;;;;;9.40;3.25;;;;;;;16.20;57.21;100339.21;1765148;81;21106;-73
2022/09/01 04:07:29;;;;;;;6.87;3.40;;;;;;;16.21;57.50;100332.06;1765481;81;21027;-74
2022/09/01 04:09:59;;;;;;;9.53;3.70;;;;;;;16.22;57.81;100341.20;1758023;81;21047;-74
2022/09/01 04:12:29;;;;;;;10.85;3.65;;;;;;;16.22;58.17;100345.34;1751410;82;21422;-73
2022/09/01 04:15:00;;;;;;;6.62;3.95;;;;;;;16.25;58.47;100347.10;1722171;82;21024;-72
2022/09/01 04:20:20;;;;;;;9.35;4.28;;;;;;;16.31;59.14;100353.09;1795502;80;21008;-73
2022/09/01 04:22:51;;;;;;;7.97;4.50;;;;;;;16.34;59.42;100362.30;1794452;79;21011;-75
2022/09/01 04:25:24;;;;;;;7.45;4.08;;;;;;;16.31;59.61;100357.79;1795977;80;20956;-74
2022/09/01 04:27:57;;;;;;;7.10;4.10;;;;;;;16.31;59.81;100357.25;1796699;79;21047;-71
2022/09/01 04:30:32;;;;;;;12.85;5.08;;;;;;;16.34;59.78;100355.93;1795771;80;20988;-73
2022/09/01 04:32:59;;;;;;;9.35;3.72;;;;;;;16.36;59.86;100356.54;1795348;79;21032;-73
2022/09/01 04:35:31;;;;;;;9.38;4.28;;;;;;;16.38;59.87;100355.77;1795666;80;21008;-73
2022/09/01 04:38:02;;;;;;;9.15;4.33;;;;;;;16.45;59.80;100355.11;1794857;80;21075;-73
2022/09/01 04:40:31;;;;;;;8.30;4.08;;;;;;;16.48;59.71;100362.39;1797014;79;21031;-74
2022/09/01 04:43:02;;;;;;;9.20;4.22;;;;;;;16.49;59.62;100369.61;1795030;79;21051;-75
2022/09/01 04:45:33;;;;;;;10.88;4.15;;;;;;;16.53;59.74;100365.83;1796069;79;21436;-73
2022/09/01 04:48:04;;;;;;;9.25;4.45;;;;;;;16.58;59.66;100363.20;1795612;80;21008;-74
2022/09/01 04:50:33;;;;;;;11.15;4.22;;;;;;;16.63;59.50;100366.09;1795809;79;21444;-73
2022/09/01 04:53:17;;;;;;;9.68;4.45;;;;;;;16.69;59.47;100374.01;1794019;80;21036;-75
2022/09/01 04:55:52;;;;;;;9.30;4.22;;;;;;;16.78;59.30;100369.27;1795519;79;21484;-75
2022/09/01 04:58:22;;;;;;;9.48;3.90;;;;;;;16.83;59.27;100364.94;1796822;79;21123;-74
2022/09/01 05:00:54;;;;;;;7.28;4.17;;;;;;;16.88;59.29;100357.60;1795646;80;21019;-74
2022/09/01 05:03:24;;;;;;;7.65;4.47;;;;;;;16.96;59.30;100358.66;1796551;80;21032;-74
2022/09/01 05:06:02;;;;;;;8.80;3.98;;;;;;;17.03;59.33;100362.69;1795176;80;21040;-73
2022/09/01 05:08:34;;;;;;;9.63;4.50;;;;;;;17.02;59.47;100361.84;1795566;80;21126;-73
2022/09/01 05:11:08;;;;;;;9.95;4.85;;;;;;;17.09;59.53;100363.11;1807558;79;21024;-74
2022/09/01 05:13:39;;;;;;;9.93;4.70;;;;;;;17.14;59.51;100364.61;1809977;79;21023;-75
2022/09/01 05:16:13;;;;;;;12.45;5.15;;;;;;;17.18;59.54;100365.81;1810011;79;21031;-75
2022/09/01 05:18:47;;;;;;;12.40;4.55;;;;;;;17.26;59.69;100370.14;1787758;79;21685;-74
2022/09/01 05:21:21;;;;;;;6.80;4.60;;;;;;;17.28;59.66;100361.88;1807901;79;21031;-73
2022/09/01 05:23:53;;;;;;;9.15;4.83;;;;;;;17.32;59.68;100358.09;1790339;79;21016;-74
2022/09/01 05:26:30;;;;;;;17.82;5.20;;;;;;;17.34;59.83;100353.99;1808728;79;21392;-73
2022/09/01 05:29:02;;;;;;;7.10;3.90;;;;;;;17.37;60.02;100357.66;1790129;79;21075;-73
2022/09/01 05:31:36;;;;;;;8.70;4.10;;;;;;;17.40;60.00;100361.87;1808182;79;21023;-74
2022/09/01 05:34:08;;;;;;;11.30;5.40;;;;;;;17.43;60.09;100358.61;1790779;79;21020;-72
2022/09/01 05:36:44;;;;;;;10.72;4.75;;;;;;;17.40;60.08;100357.17;1808680;79;21443;-72
2022/09/01 05:39:14;;;;;;;15.13;5.08;;;;;;;17.46;60.06;100362.82;1791503;79;21082;-73
2022/09/01 05:41:44;;;;;;;9.58;4.78;;;;;;;17.53;59.70;100364.91;1809207;79;21007;-74
2022/09/01 05:44:17;;;;;;;11.97;4.30;;;;;;;17.58;59.26;100355.36;1803269;79;21057;-73
2022/09/01 05:46:49;;;;;;;11.43;4.37;;;;;;;17.66;58.85;100360.52;1809013;79;21007;-75
2022/09/01 05:49:19;;;;;;;9.13;4.25;;;;;;;17.73;58.17;100361.25;1790449;79;20988;-74
2022/09/01 05:51:51;;;;;;;15.23;4.80;;;;;;;17.74;57.81;100359.62;1808635;79;21076;-77
2022/09/01 05:54:24;;;;;;;7.60;3.77;;;;;;;17.81;57.01;100371.95;1789381;79;21102;-74
2022/09/01 05:56:57;;;;;;;10.70;4.20;;;;;;;17.85;56.58;100359.83;1809146;79;20999;-74
2022/09/01 05:59:30;;;;;;;10.48;4.37;;;;;;;17.89;56.34;100355.47;1786621;79;20964;-73
2022/09/01 06:02:07;;;;;;;10.63;3.72;;;;;;;17.91;56.31;100354.13;1809428;79;20988;-75
2022/09/01 06:04:42;;;;;;;10.55;3.80;;;;;;;17.89;56.06;100354.92;1791116;79;21051;-71
2022/09/01 06:07:13;;;;;;;6.90;3.80;;;;;;;17.88;56.20;100352.40;1808594;79;21003;-73
2022/09/01 06:09:47;;;;;;;7.30;3.27;;;;;;;17.92;56.04;100348.89;1808641;79;21036;-73
2022/09/01 06:12:22;;;;;;;8.00;3.33;;;;;;;17.98;55.77;100352.60;1820978;79;20995;-73
2022/09/01 06:14:54;;;;;;;7.25;3.10;;;;;;;18.04;55.10;100349.67;1771745;80;21070;-75
2022/09/01 06:17:25;;;;;;;4.10;2.80;;;;;;;18.10;54.45;100351.16;1764918;80;20999;-73
2022/09/01 06:19:56;;;;;;;8.60;2.95;;;;;;;18.13;53.89;100349.27;1764772;80;21454;-73
2022/09/01 06:22:27;;;;;;;6.40;2.72;;;;;;;18.16;53.50;100346.84;1771575;80;21010;-73
2022/09/01 06:24:58;;;;;;;8.95;2.70;;;;;;;18.22;52.43;100351.98;1771537;80;21122;-73
2022/09/01 06:27:30;;;;;;;5.70;2.37;;;;;;;18.24;51.55;100347.02;1771513;80;21488;-74
2022/09/01 06:30:00;;;;;;;3.65;2.15;;;;;;;18.27;50.87;100354.84;1758886;80;21003;-73
2022/09/01 06:32:37;;;;;;;7.22;2.37;;;;;;;18.31;50.32;100354.09;1749711;80;21524;-73
2022/09/01 06:35:08;;;;;;;4.12;1.92;;;;;;;18.33;49.90;100357.45;1749796;80;21058;-73
2022/09/01 06:37:38;;;;;;;5.62;2.00;;;;;;;18.33;49.58;100353.84;1778695;80;21501;-73
2022/09/01 06:40:15;;;;;;;2.70;1.80;;;;;;;18.34;48.34;100349.98;1735572;80;21071;-74
2022/09/01 06:42:46;;;;;;;5.85;2.52;;;;;;;18.34;46.97;100348.59;1768861;80;21010;-75
2022/09/01 06:45:17;;;;;;;4.60;1.65;;;;;;;18.37;46.29;100362.80;1751501;80;21063;-74
2022/09/01 06:47:49;;;;;;;3.58;2.05;;;;;;;18.38;45.22;100353.94;1761093;80;21442;-75
2022/09/01 06:50:22;;;;;;;7.50;2.45;;;;;;;18.45;44.89;100351.84;1764521;80;20991;-73
2022/09/01 06:53:00;;;;;;;5.30;1.92;;;;;;;18.51;44.43;100355.00;1774842;80;21431;-73
2022/09/01 06:55:32;;;;;;;4.90;2.20;;;;;;;18.60;44.39;100362.36;1747302;80;21063;-74
2022/09/01 06:57:57;;;;;;;5.53;2.15;;;;;;;18.64;43.99;100364.41;1761286;80;21014;-74
2022/09/01 07:00:29;;;;;;;6.35;2.20;;;;;;;18.64;43.48;100361.64;1769438;80;21019;-75
2022/09/01 07:02:59;;;;;;;4.05;2.52;;;;;;;18.69;43.74;100370.05;1778480;80;21042;-74
2022/09/01 07:05:40;;;;;;;4.25;2.50;;;;;;;18.91;43.37;100366.00;1743635;80;21003;-73
2022/09/01 07:08:18;;;;;;;4.90;2.95;;;;;;;19.20;42.99;100363.94;1760562;80;21002;-74
2022/09/01 07:11:00;;;;;;;10.38;3.20;;;;;;;19.55;42.62;100357.26;1756904;80;21059;-74
2022/09/01 07:13:34;;;;;;;5.37;2.90;;;;;;;20.01;41.33;100366.16;1750131;81;21074;-75
2022/09/01 07:16:06;;;;;;;12.50;3.15;;;;;;;20.29;40.35;100358.14;1767970;81;21043;-74
2022/09/01 07:18:40;;;;;;;6.15;3.00;;;;;;;20.32;40.08;100362.63;1763456;81;21043;-75
2022/09/01 07:21:12;;;;;;;6.25;2.98;;;;;;;20.26;40.05;100360.89;1767343;81;21015;-74
2022/09/01 07:23:44;;;;;;;4.70;2.60;;;;;;;20.24;40.18;100363.95;1744190;81;21482;-75
2022/09/01 07:26:18;;;;;;;6.08;2.50;;;;;;;20.27;39.69;100368.14;1762570;81;21046;-74
2022/09/01 07:28:51;;;;;;;7.17;3.08;;;;;;;20.27;39.55;100369.53;1764280;81;21011;-75
2022/09/01 07:31:34;;;;;;;5.92;2.80;;;;;;;20.33;39.20;100360.69;1765933;81;21003;-75
2022/09/01 07:34:11;;;;;;;5.62;3.15;;;;;;;20.37;39.47;100366.86;1763575;81;21007;-76
2022/09/01 07:36:42;;;;;;;7.03;2.85;;;;;;;20.46;39.00;100361.12;1763655;80;21023;-73
2022/09/01 07:39:13;;;;;;;6.53;2.75;;;;;;;20.60;38.87;100365.71;1763393;81;20979;-75
2022/09/01 07:41:47;;;;;;;7.15;3.12;;;;;;;20.73;38.28;100371.39;1749753;80;21039;-77
2022/09/01 07:44:33;;;;;;;7.58;2.40;;;;;;;20.79;38.80;100365.59;1743180;81;21031;-74
2022/09/01 07:47:14;;;;;;;6.95;2.83;;;;;;;20.82;37.92;100372.61;1760047;80;20999;-75
2022/09/01 07:49:46;;;;;;;8.55;2.90;;;;;;;20.83;37.52;100370.11;1767653;81;21038;-74
2022/09/01 07:52:19;;;;;;;9.55;4.08;;;;;;;20.79;37.48;100368.94;1760653;81;21031;-73
2022/09/01 07:54:52;;;;;;;9.83;4.53;;;;;;;20.78;37.64;100370.88;1756141;80;21163;-74
2022/09/01 07:57:23;;;;;;;7.75;4.20;;;;;;;20.87;37.60;100372.66;1767010;80;21496;-75
2022/09/01 07:59:54;;;;;;;7.42;4.30;;;;;;;20.98;37.88;100371.63;1745420;81;21046;-71
2022/09/01 08:02:26;;;;;;;12.63;4.47;;;;;;;21.11;37.17;100371.16;1765529;81;21011;-70
2022/09/01 08:04:56;;;;;;;31.27;6.15;;;;;;;21.12;36.74;100367.27;1767677;81;21481;-72
2022/09/01 08:07:25;;;;;;;11.12;4.40;;;;;;;21.12;36.90;100371.45;1766905;80;20999;-72
2022/09/01 08:09:56;;;;;;;10.85;4.90;;;;;;;21.23;36.82;100368.76;1766969;81;21074;-70
2022/09/01 08:12:28;;;;;;;11.28;6.10;;;;;;;21.31;37.25;100364.91;1766839;81;21011;-72
2022/09/01 08:14:58;;;;;;;15.55;7.08;;;;;;;21.43;37.19;100368.87;1767744;81;21027;-70
2022/09/01 08:17:29;;;;;;;17.37;8.93;;;;;;;21.50;36.36;100362.54;1764189;81;21497;-69
2022/09/01 08:20:06;;;;;;;17.30;9.38;;;;;;;21.52;36.61;100361.72;1764056;81;21027;-68
2022/09/01 08:22:48;;;;;;;13.83;7.83;;;;;;;21.52;36.75;100367.29;1766014;81;21007;-70
2022/09/01 08:25:19;;;;;;;16.07;8.80;;;;;;;21.68;35.87;100361.23;1759466;81;21644;-70
2022/09/01 08:27:50;;;;;;;19.15;11.57;;;;;;;21.89;36.05;100362.15;1766803;80;21087;-70
2022/09/01 08:30:22;;;;;;;22.60;13.18;;;;;;;22.14;36.15;100359.50;1766360;81;21066;-71
2022/09/01 08:32:51;;;;;;;23.60;13.95;;;;;;;22.36;35.90;100355.08;1767265;81;21400;-69
2022/09/01 08:35:20;;;;;;;20.68;12.63;;;;;;;22.54;35.87;100366.27;1767462;81;21104;-69
2022/09/01 08:37:49;;;;;;;25.97;12.47;;;;;;;22.74;34.93;100354.55;1767159;81;20999;-69
2022/09/01 08:40:19;;;;;;;10.20;5.53;;;;;;;22.94;34.32;100352.92;1766479;80;21090;-69
2022/09/01 08:43:18;;;;;;;9.98;4.67;;;;;;;23.10;33.03;100360.17;1740904;81;21472;-71
2022/09/01 08:45:53;;;;;;;15.85;8.18;;;;;;;23.24;31.90;100354.84;1770505;80;21034;-70
2022/09/01 08:48:34;;;;;;;11.90;7.33;;;;;;;23.42;31.96;100345.87;1767452;80;20991;-69
2022/09/01 08:51:14;;;;;;;17.42;9.83;;;;;;;23.66;31.79;100349.73;1764218;81;21070;-70
2022/09/01 08:54:03;;;;;;;15.98;8.70;;;;;;;23.72;31.61;100346.36;1758840;80;21039;-70
2022/09/01 08:56:34;;;;;;;27.55;12.95;;;;;;;23.60;31.09;100341.09;1766805;80;21212;-68
2022/09/01 08:59:06;;;;;;;26.40;15.48;;;;;;;23.42;31.48;100345.03;1767301;81;21041;-70
2022/09/01 09:01:51;;;;;;;30.32;16.70;;;;;;;23.29;31.66;100339.45;1764208;81;21086;-71
2022/09/01 09:04:40;;;;;;;29.20;18.07;;;;;;;23.15;31.81;100336.97;1767864;81;21454;-70
2022/09/01 09:08:03;;;;;;;41.20;21.57;;;;;;;22.98;32.53;100340.06;1767209;81;21074;-70
2022/09/01 09:10:57;;;;;;;47.23;26.10;;;;;;;22.82;32.62;100348.19;1671547;85;21105;-70
2022/09/01 09:13:35;;;;;;;51.30;30.37;;;;;;;22.60;32.80;100347.84;1764758;79;21046;-69
2022/09/01 09:16:15;;;;;;;58.87;34.40;;;;;;;22.53;33.04;100340.86;1777051;80;21541;-70
2022/09/01 09:18:56;;;;;;;65.97;35.35;;;;;;;22.51;33.31;100339.73;1778406;80;21078;-72
2022/09/01 09:21:41;;;;;;;73.42;40.58;;;;;;;22.50;33.32;100339.45;1777110;80;21065;-70
2022/09/01 09:24:45;;;;;;;65.72;37.30;;;;;;;22.57;33.36;100337.78;1766437;80;20994;-70
2022/09/01 09:27:02;;;;;;;69.47;37.48;;;;;;;22.59;33.35;100343.94;1773792;80;21076;-71
2022/09/01 09:29:32;;;;;;;62.38;37.88;;;;;;;22.46;32.67;100340.58;1773912;80;21019;-70
2022/09/01 09:32:07;;;;;;;72.92;41.08;;;;;;;22.29;33.22;100338.59;1776927;80;21042;-71
2022/09/01 09:34:41;;;;;;;73.62;42.15;;;;;;;22.14;33.30;100339.97;1775345;80;21467;-70
2022/09/01 09:37:28;;;;;;;71.87;40.60;;;;;;;22.03;34.02;100337.67;1778858;80;20995;-71
2022/09/01 09:40:23;;;;;;;72.55;40.35;;;;;;;21.96;33.98;100335.67;1780889;80;21039;-70
2022/09/01 09:43:00;;;;;;;70.40;40.05;;;;;;;21.77;34.62;100335.33;1778186;80;21039;-71
2022/09/01 09:45:33;;;;;;;68.70;37.50;;;;;;;21.73;34.91;100336.16;1779135;80;21415;-70
2022/09/01 09:48:12;;;;;;;60.98;35.35;;;;;;;21.71;35.36;100335.58;1762869;79;21478;-69
2022/09/01 09:50:42;;;;;;;59.63;33.33;;;;;;;21.68;35.21;100332.78;1741427;80;21031;-71
2022/09/01 09:53:27;;;;;;;49.35;27.13;;;;;;;21.57;35.59;100339.44;1777895;80;21125;-72
2022/09/01 09:56:23;;;;;;;35.88;20.80;;;;;;;21.56;35.23;100341.09;1776042;80;21040;-71
2022/09/01 09:58:52;;;;;;;35.43;18.37;;;;;;;21.48;35.44;100341.06;1770720;80;21081;-71
2022/09/01 10:01:26;;;;;;;27.58;15.55;;;;;;;21.43;35.72;100334.88;1776888;80;21097;-71
2022/09/01 10:03:59;;;;;;;26.65;13.43;;;;;;;21.45;35.74;100338.23;1776356;80;21070;-71
2022/09/01 10:06:43;;;;;;;16.17;9.40;;;;;;;21.48;36.01;100340.50;1777537;80;21521;-72
2022/09/01 10:09:25;;;;;;;11.28;6.00;;;;;;;21.50;35.35;100337.45;1777844;80;21046;-71
2022/09/01 10:11:56;;;;;;;7.40;3.42;;;;;;;21.48;34.81;100339.67;1770474;80;21114;-71
2022/09/01 10:14:36;;;;;;;7.03;2.65;;;;;;;21.49;34.98;100337.16;1766828;81;21475;-72
2022/09/01 10:17:14;;;;;;;4.45;2.20;;;;;;;21.58;34.82;100332.75;1765050;81;21027;-71
2022/09/01 10:19:49;;;;;;;7.47;2.40;;;;;;;21.60;34.74;100329.69;1767769;80;21551;-71
2022/09/01 10:22:19;;;;;;;6.30;2.05;;;;;;;21.63;34.50;100325.80;1766949;81;21079;-72
2022/09/01 10:24:49;;;;;;;5.30;2.15;;;;;;;21.67;34.36;100336.69;1767016;80;21038;-72
2022/09/01 10:27:25;;;;;;;4.15;1.75;;;;;;;21.66;34.31;100325.25;1767189;81;21077;-67
2022/09/01 10:30:14;;;;;;;4.65;1.90;;;;;;;21.65;34.60;100329.70;1766366;80;21051;-69
2022/09/01 10:32:54;;;;;;;5.75;1.77;;;;;;;21.64;34.36;100337.23;1767949;81;21067;-70
2022/09/01 10:35:31;;;;;;;6.95;2.08;;;;;;;21.56;33.48;100333.57;1767970;80;21019;-68
2022/09/01 10:38:05;;;;;;;5.97;1.85;;;;;;;21.44;33.49;100335.16;1767047;81;21015;-68
2022/09/01 10:40:44;;;;;;;3.98;2.00;;;;;;;21.42;33.67;100326.78;1767867;80;21075;-69
2022/09/01 10:43:44;;;;;;;3.65;2.30;;;;;;;21.46;33.98;100322.37;1765565;81;21102;-70
2022/09/01 10:46:25;;;;;;;5.33;2.00;;;;;;;21.52;34.18;100317.10;1763788;81;21007;-69
2022/09/01 10:48:57;;;;;;;6.25;2.22;;;;;;;21.54;34.43;100316.28;1765330;81;21011;-69
2022/09/01 10:51:34;;;;;;;4.10;1.60;;;;;;;21.54;34.62;100315.44;1766308;81;21078;-68
2022/09/01 10:54:05;;;;;;;8.20;2.50;;;;;;;21.51;34.65;100318.22;1762050;81;21016;-69
2022/09/01 10:56:45;;;;;;;3.92;1.50;;;;;;;21.45;34.55;100317.32;1744377;81;21007;-66
2022/09/01 10:59:25;;;;;;;2.95;1.20;;;;;;;21.47;34.47;100313.73;1766869;81;21063;-68
2022/09/01 11:02:20;;;;;;;1.67;1.05;;;;;;;21.46;33.63;100322.37;1760141;81;21515;-69
2022/09/01 11:05:03;;;;;;;3.58;1.90;;;;;;;21.45;33.52;100317.88;1764951;81;21053;-63
2022/09/01 11:07:34;;;;;;;6.40;3.12;;;;;;;21.46;34.29;100315.41;1767147;81;21470;-66
2022/09/01 11:10:28;;;;;;;5.30;2.40;;;;;;;21.43;36.22;100298.63;1764328;81;21023;-62
2022/09/01 11:13:25;;;;;;;8.05;3.25;;;;;;;21.48;34.74;100304.82;1754821;80;21463;-62
2022/09/01 11:15:55;;;;;;;6.85;2.72;;;;;;;21.51;35.10;100302.33;1767401;80;20995;-69
2022/09/01 11:18:29;;;;;;;6.92;3.10;;;;;;;21.59;34.07;100301.52;1768262;80;21036;-63
2022/09/01 11:21:20;;;;;;;6.97;3.22;;;;;;;21.57;33.00;100311.55;1767328;80;21693;-62
2022/09/01 11:23:51;;;;;;;8.63;3.90;;;;;;;21.59;33.42;100308.48;1764594;81;21047;-62
2022/09/01 11:26:48;;;;;;;6.33;3.95;;;;;;;21.64;33.21;100298.19;1760356;81;21071;-62
2022/09/01 11:29:57;;;;;;;9.73;4.90;;;;;;;21.67;33.15;100296.25;1752741;81;21131;-62
2022/09/01 11:32:33;;;;;;;11.45;5.30;;;;;;;21.74;32.89;100296.83;1775688;81;20995;-62
2022/09/01 11:35:15;;;;;;;12.95;7.10;;;;;;;21.76;32.90;100300.19;1756115;80;21038;-68
2022/09/01 11:37:51;;;;;;;31.20;10.75;;;;;;;21.75;32.38;100292.93;1818964;79;21109;-62
2022/09/01 11:40:26;;;;;;;16.10;8.48;;;;;;;21.76;31.90;100307.16;1812574;79;20952;-63
2022/09/01 11:42:57;;;;;;;19.15;9.63;;;;;;;21.80;30.95;100303.27;1810836;79;21031;-72
2022/09/01 11:45:32;;;;;;;23.85;11.55;;;;;;;21.74;30.84;100295.98;1811456;79;21055;-68
2022/09/01 11:48:07;;;;;;;23.92;11.97;;;;;;;21.71;31.64;100300.17;1814601;79;21031;-68
2022/09/01 11:50:40;;;;;;;23.53;11.33;;;;;;;21.73;31.90;100292.92;1814515;79;21594;-72
2022/09/01 11:53:17;;;;;;;21.57;11.43;;;;;;;21.74;31.98;100291.25;1790934;79;21047;-71
2022/09/01 11:55:50;;;;;;;17.85;10.40;;;;;;;21.71;31.94;100293.75;1814830;79;21035;-70
2022/09/01 11:58:33;;;;;;;21.23;10.40;;;;;;;21.71;31.94;100293.75;1817304;79;21380;-72
2022/09/01 12:01:22;;;;;;;18.15;10.88;;;;;;;21.71;31.70;100299.33;1810226;79;20999;-72